sensor_id;sensor_type;location;lat;lon;timestamp;P1;durP1;ratioP1;P2;durP2;ratioP2
18804;SDS011;9530;48.930;9.526;2023-03-01T00:02:26;19.67;;;13.17;;
18804;SDS011;9530;48.930;9.526;2023-03-01T00:04:53;22.13;;;13.63;;
18804;SDS011;9530;48.930;9.526;2023-03-01T00:07:19;21.67;;;13.63;;
18804;SDS011;9530;48.930;9.526;2023-03-01T00:09:46;21.10;;;14.17;;
18804;SDS011;9530;48.930;9.526;2023-03-01T00:12:14;19.53;;;13.60;;
18804;SDS011;9530;48.930;9.526;2023-03-01T00:14:41;20.47;;;13.83;;
18804;SDS011;9530;48.930;9.526;2023-03-01T00:17:07;24.60;;;14.70;;
18804;SDS011;9530;48.930;9.526;2023-03-01T00:19:34;20.33;;;13.50;;
18804;SDS011;9530;48.930;9.526;2023-03-01T00:22:01;20.33;;;14.30;;
18804;SDS011;9530;48.930;9.526;2023-03-01T00:24:28;20.37;;;13.77;;
18804;SDS011;9530;48.930;9.526;2023-03-01T00:26:55;21.63;;;14.37;;
18804;SDS011;9530;48.930;9.526;2023-03-01T00:29:24;19.60;;;13.57;;
18804;SDS011;9530;48.930;9.526;2023-03-01T00:31:51;22.30;;;14.27;;
18804;SDS011;9530;48.930;9.526;2023-03-01T00:34:17;19.73;;;14.03;;
18804;SDS011;9530;48.930;9.526;2023-03-01T00:36:44;18.60;;;13.60;;
18804;SDS011;9530;48.930;9.526;2023-03-01T00:39:12;23.67;;;14.63;;
18804;SDS011;9530;48.930;9.526;2023-03-01T00:41:42;21.97;;;14.57;;
18804;SDS011;9530;48.930;9.526;2023-03-01T00:44:09;25.60;;;14.70;;
18804;SDS011;9530;48.930;9.526;2023-03-01T00:46:38;22.83;;;13.90;;
18804;SDS011;9530;48.930;9.526;2023-03-01T00:49:05;21.83;;;14.87;;
18804;SDS011;9530;48.930;9.526;2023-03-01T00:51:31;21.73;;;13.73;;
18804;SDS011;9530;48.930;9.526;2023-03-01T00:53:59;25.87;;;14.17;;
18804;SDS011;9530;48.930;9.526;2023-03-01T00:56:28;21.67;;;13.20;;
18804;SDS011;9530;48.930;9.526;2023-03-01T00:58:54;22.73;;;14.47;;
18804;SDS011;9530;48.930;9.526;2023-03-01T01:01:22;23.37;;;14.83;;
18804;SDS011;9530;48.930;9.526;2023-03-01T01:03:54;24.57;;;15.10;;
18804;SDS011;9530;48.930;9.526;2023-03-01T01:06:23;22.07;;;14.93;;
18804;SDS011;9530;48.930;9.526;2023-03-01T01:08:51;23.77;;;14.70;;
18804;SDS011;9530;48.930;9.526;2023-03-01T01:11:19;21.47;;;14.47;;
18804;SDS011;9530;48.930;9.526;2023-03-01T01:13:46;24.57;;;15.30;;
18804;SDS011;9530;48.930;9.526;2023-03-01T01:16:15;23.33;;;15.17;;
18804;SDS011;9530;48.930;9.526;2023-03-01T01:18:43;21.50;;;15.00;;
18804;SDS011;9530;48.930;9.526;2023-03-01T01:21:12;24.87;;;15.87;;
18804;SDS011;9530;48.930;9.526;2023-03-01T01:23:40;21.87;;;15.20;;
18804;SDS011;9530;48.930;9.526;2023-03-01T01:26:09;25.93;;;16.40;;
18804;SDS011;9530;48.930;9.526;2023-03-01T01:28:37;22.07;;;15.07;;
18804;SDS011;9530;48.930;9.526;2023-03-01T01:31:04;24.37;;;15.27;;
18804;SDS011;9530;48.930;9.526;2023-03-01T01:33:31;23.80;;;15.27;;
18804;SDS011;9530;48.930;9.526;2023-03-01T01:35:58;23.90;;;15.70;;
18804;SDS011;9530;48.930;9.526;2023-03-01T01:38:26;24.93;;;15.63;;
18804;SDS011;9530;48.930;9.526;2023-03-01T01:40:53;26.60;;;16.83;;
18804;SDS011;9530;48.930;9.526;2023-03-01T01:43:21;23.53;;;15.57;;
18804;SDS011;9530;48.930;9.526;2023-03-01T01:45:49;23.07;;;15.27;;
18804;SDS011;9530;48.930;9.526;2023-03-01T01:48:17;28.03;;;16.33;;
18804;SDS011;9530;48.930;9.526;2023-03-01T01:50:46;25.83;;;15.87;;
18804;SDS011;9530;48.930;9.526;2023-03-01T01:53:19;23.43;;;15.80;;
18804;SDS011;9530;48.930;9.526;2023-03-01T01:55:49;25.47;;;15.87;;
18804;SDS011;9530;48.930;9.526;2023-03-01T01:58:19;24.67;;;16.07;;
18804;SDS011;9530;48.930;9.526;2023-03-01T02:00:47;25.90;;;16.23;;
18804;SDS011;9530;48.930;9.526;2023-03-01T02:03:17;24.90;;;15.40;;
18804;SDS011;9530;48.930;9.526;2023-03-01T02:05:47;24.70;;;15.93;;
18804;SDS011;9530;48.930;9.526;2023-03-01T02:08:19;23.87;;;15.07;;
18804;SDS011;9530;48.930;9.526;2023-03-01T02:10:50;22.80;;;14.77;;
18804;SDS011;9530;48.930;9.526;2023-03-01T02:13:18;22.53;;;15.20;;
18804;SDS011;9530;48.930;9.526;2023-03-01T02:15:45;23.63;;;15.63;;
18804;SDS011;9530;48.930;9.526;2023-03-01T02:18:14;25.93;;;16.47;;
18804;SDS011;9530;48.930;9.526;2023-03-01T02:20:44;26.27;;;15.77;;
18804;SDS011;9530;48.930;9.526;2023-03-01T02:23:21;22.97;;;15.63;;
18804;SDS011;9530;48.930;9.526;2023-03-01T02:25:51;22.43;;;15.90;;
18804;SDS011;9530;48.930;9.526;2023-03-01T02:28:24;25.77;;;15.93;;
18804;SDS011;9530;48.930;9.526;2023-03-01T02:30:52;24.57;;;15.80;;
18804;SDS011;9530;48.930;9.526;2023-03-01T02:33:37;24.47;;;15.50;;
18804;SDS011;9530;48.930;9.526;2023-03-01T02:36:06;25.10;;;15.40;;
18804;SDS011;9530;48.930;9.526;2023-03-01T02:38:36;23.10;;;15.77;;
18804;SDS011;9530;48.930;9.526;2023-03-01T02:41:03;25.13;;;16.33;;
18804;SDS011;9530;48.930;9.526;2023-03-01T02:43:33;24.17;;;15.27;;
18804;SDS011;9530;48.930;9.526;2023-03-01T02:46:02;25.47;;;15.93;;
18804;SDS011;9530;48.930;9.526;2023-03-01T02:48:38;27.00;;;17.10;;
18804;SDS011;9530;48.930;9.526;2023-03-01T02:51:09;23.37;;;15.67;;
18804;SDS011;9530;48.930;9.526;2023-03-01T02:53:45;25.07;;;17.20;;
18804;SDS011;9530;48.930;9.526;2023-03-01T02:56:18;22.33;;;15.77;;
18804;SDS011;9530;48.930;9.526;2023-03-01T02:58:46;22.33;;;15.47;;
18804;SDS011;9530;48.930;9.526;2023-03-01T03:01:16;23.97;;;15.20;;
18804;SDS011;9530;48.930;9.526;2023-03-01T03:03:43;22.70;;;14.93;;
18804;SDS011;9530;48.930;9.526;2023-03-01T03:06:09;23.03;;;14.97;;
18804;SDS011;9530;48.930;9.526;2023-03-01T03:08:36;22.73;;;14.43;;
18804;SDS011;9530;48.930;9.526;2023-03-01T03:11:03;23.53;;;15.13;;
18804;SDS011;9530;48.930;9.526;2023-03-01T03:13:30;23.27;;;15.80;;
18804;SDS011;9530;48.930;9.526;2023-03-01T03:15:58;21.17;;;14.50;;
18804;SDS011;9530;48.930;9.526;2023-03-01T03:18:25;23.07;;;15.10;;
18804;SDS011;9530;48.930;9.526;2023-03-01T03:20:52;24.23;;;15.60;;
18804;SDS011;9530;48.930;9.526;2023-03-01T03:23:19;22.50;;;14.53;;
18804;SDS011;9530;48.930;9.526;2023-03-01T03:25:47;22.07;;;14.80;;
18804;SDS011;9530;48.930;9.526;2023-03-01T03:28:15;22.20;;;15.07;;
18804;SDS011;9530;48.930;9.526;2023-03-01T03:30:42;23.17;;;15.03;;
18804;SDS011;9530;48.930;9.526;2023-03-01T03:33:11;22.13;;;14.17;;
18804;SDS011;9530;48.930;9.526;2023-03-01T03:35:39;24.10;;;15.37;;
18804;SDS011;9530;48.930;9.526;2023-03-01T03:38:09;21.90;;;15.00;;
18804;SDS011;9530;48.930;9.526;2023-03-01T03:40:42;22.83;;;14.57;;
18804;SDS011;9530;48.930;9.526;2023-03-01T03:43:10;23.47;;;15.30;;
18804;SDS011;9530;48.930;9.526;2023-03-01T03:45:38;22.17;;;15.10;;
18804;SDS011;9530;48.930;9.526;2023-03-01T03:48:06;22.70;;;15.23;;
18804;SDS011;9530;48.930;9.526;2023-03-01T03:50:35;23.97;;;15.40;;
18804;SDS011;9530;48.930;9.526;2023-03-01T03:53:03;24.13;;;15.47;;
18804;SDS011;9530;48.930;9.526;2023-03-01T03:55:31;22.40;;;15.37;;
18804;SDS011;9530;48.930;9.526;2023-03-01T03:57:58;24.97;;;15.70;;
18804;SDS011;9530;48.930;9.526;2023-03-01T04:00:32;22.53;;;14.70;;
18804;SDS011;9530;48.930;9.526;2023-03-01T04:02:59;25.03;;;16.17;;
18804;SDS011;9530;48.930;9.526;2023-03-01T04:05:26;22.70;;;15.00;;
18804;SDS011;9530;48.930;9.526;2023-03-01T04:07:55;28.93;;;15.20;;
18804;SDS011;9530;48.930;9.526;2023-03-01T04:10:33;23.00;;;15.37;;
18804;SDS011;9530;48.930;9.526;2023-03-01T04:13:02;24.90;;;15.93;;
18804;SDS011;9530;48.930;9.526;2023-03-01T04:15:29;22.67;;;15.00;;
18804;SDS011;9530;48.930;9.526;2023-03-01T04:17:57;24.10;;;15.27;;
18804;SDS011;9530;48.930;9.526;2023-03-01T04:20:25;23.23;;;14.83;;
18804;SDS011;9530;48.930;9.526;2023-03-01T04:22:58;21.50;;;14.73;;
18804;SDS011;9530;48.930;9.526;2023-03-01T04:25:35;21.93;;;14.93;;
18804;SDS011;9530;48.930;9.526;2023-03-01T04:28:03;24.03;;;15.47;;
18804;SDS011;9530;48.930;9.526;2023-03-01T04:30:30;24.57;;;15.43;;
18804;SDS011;9530;48.930;9.526;2023-03-01T04:33:00;22.50;;;15.37;;
18804;SDS011;9530;48.930;9.526;2023-03-01T04:35:27;23.77;;;16.43;;
18804;SDS011;9530;48.930;9.526;2023-03-01T04:37:54;19.87;;;14.27;;
18804;SDS011;9530;48.930;9.526;2023-03-01T04:40:22;24.47;;;15.53;;
18804;SDS011;9530;48.930;9.526;2023-03-01T04:42:50;22.77;;;15.43;;
18804;SDS011;9530;48.930;9.526;2023-03-01T04:45:16;24.27;;;15.80;;
18804;SDS011;9530;48.930;9.526;2023-03-01T04:47:44;23.67;;;14.87;;
18804;SDS011;9530;48.930;9.526;2023-03-01T04:50:12;25.30;;;16.13;;
18804;SDS011;9530;48.930;9.526;2023-03-01T04:52:41;22.83;;;15.47;;
18804;SDS011;9530;48.930;9.526;2023-03-01T04:55:09;23.97;;;15.23;;
18804;SDS011;9530;48.930;9.526;2023-03-01T04:57:37;24.53;;;15.83;;
18804;SDS011;9530;48.930;9.526;2023-03-01T05:00:06;28.40;;;16.47;;
18804;SDS011;9530;48.930;9.526;2023-03-01T05:02:45;22.67;;;14.57;;
18804;SDS011;9530;48.930;9.526;2023-03-01T05:05:13;25.10;;;15.73;;
18804;SDS011;9530;48.930;9.526;2023-03-01T05:07:40;27.53;;;16.37;;
18804;SDS011;9530;48.930;9.526;2023-03-01T05:10:07;23.20;;;15.77;;
18804;SDS011;9530;48.930;9.526;2023-03-01T05:12:35;24.07;;;15.70;;
18804;SDS011;9530;48.930;9.526;2023-03-01T05:15:04;24.70;;;16.13;;
18804;SDS011;9530;48.930;9.526;2023-03-01T05:17:32;23.33;;;15.93;;
18804;SDS011;9530;48.930;9.526;2023-03-01T05:19:58;23.77;;;16.13;;
18804;SDS011;9530;48.930;9.526;2023-03-01T05:22:25;22.10;;;15.07;;
18804;SDS011;9530;48.930;9.526;2023-03-01T05:24:52;24.10;;;16.07;;
18804;SDS011;9530;48.930;9.526;2023-03-01T05:27:20;23.33;;;16.33;;
18804;SDS011;9530;48.930;9.526;2023-03-01T05:29:47;25.53;;;16.13;;
18804;SDS011;9530;48.930;9.526;2023-03-01T05:32:15;24.33;;;16.30;;
18804;SDS011;9530;48.930;9.526;2023-03-01T05:34:42;22.67;;;15.47;;
18804;SDS011;9530;48.930;9.526;2023-03-01T05:37:09;22.23;;;15.20;;
18804;SDS011;9530;48.930;9.526;2023-03-01T05:39:36;23.93;;;16.23;;
18804;SDS011;9530;48.930;9.526;2023-03-01T05:42:02;25.87;;;16.40;;
18804;SDS011;9530;48.930;9.526;2023-03-01T05:44:29;21.97;;;16.23;;
18804;SDS011;9530;48.930;9.526;2023-03-01T05:46:56;24.37;;;16.40;;
18804;SDS011;9530;48.930;9.526;2023-03-01T05:49:24;24.70;;;16.50;;
18804;SDS011;9530;48.930;9.526;2023-03-01T05:51:52;21.83;;;15.50;;
18804;SDS011;9530;48.930;9.526;2023-03-01T05:54:19;28.27;;;17.63;;
18804;SDS011;9530;48.930;9.526;2023-03-01T05:56:47;23.57;;;16.10;;
18804;SDS011;9530;48.930;9.526;2023-03-01T05:59:14;26.80;;;17.87;;
18804;SDS011;9530;48.930;9.526;2023-03-01T06:01:41;25.20;;;17.30;;
18804;SDS011;9530;48.930;9.526;2023-03-01T06:04:08;26.07;;;17.07;;
18804;SDS011;9530;48.930;9.526;2023-03-01T06:06:36;25.73;;;16.50;;
18804;SDS011;9530;48.930;9.526;2023-03-01T06:09:03;26.87;;;15.90;;
18804;SDS011;9530;48.930;9.526;2023-03-01T06:11:33;27.30;;;17.70;;
18804;SDS011;9530;48.930;9.526;2023-03-01T06:13:59;27.33;;;17.63;;
18804;SDS011;9530;48.930;9.526;2023-03-01T06:16:26;26.77;;;16.83;;
18804;SDS011;9530;48.930;9.526;2023-03-01T06:18:53;23.90;;;15.77;;
18804;SDS011;9530;48.930;9.526;2023-03-01T06:21:19;27.77;;;16.43;;
18804;SDS011;9530;48.930;9.526;2023-03-01T06:23:47;27.30;;;17.13;;
18804;SDS011;9530;48.930;9.526;2023-03-01T06:26:14;26.67;;;17.03;;
18804;SDS011;9530;48.930;9.526;2023-03-01T06:28:41;27.97;;;16.83;;
18804;SDS011;9530;48.930;9.526;2023-03-01T06:31:11;25.83;;;16.60;;
18804;SDS011;9530;48.930;9.526;2023-03-01T06:33:37;27.40;;;17.83;;
18804;SDS011;9530;48.930;9.526;2023-03-01T06:36:04;27.90;;;16.93;;
18804;SDS011;9530;48.930;9.526;2023-03-01T06:38:32;29.00;;;17.90;;
18804;SDS011;9530;48.930;9.526;2023-03-01T06:41:00;26.63;;;17.27;;
18804;SDS011;9530;48.930;9.526;2023-03-01T06:43:26;31.23;;;20.80;;
18804;SDS011;9530;48.930;9.526;2023-03-01T06:45:53;27.83;;;17.83;;
18804;SDS011;9530;48.930;9.526;2023-03-01T06:48:20;30.03;;;18.63;;
18804;SDS011;9530;48.930;9.526;2023-03-01T06:50:46;27.10;;;16.97;;
18804;SDS011;9530;48.930;9.526;2023-03-01T06:53:13;25.00;;;17.13;;
18804;SDS011;9530;48.930;9.526;2023-03-01T06:55:40;28.83;;;18.37;;
18804;SDS011;9530;48.930;9.526;2023-03-01T06:58:08;29.60;;;18.17;;
18804;SDS011;9530;48.930;9.526;2023-03-01T07:00:35;27.97;;;17.63;;
18804;SDS011;9530;48.930;9.526;2023-03-01T07:03:02;29.37;;;18.67;;
18804;SDS011;9530;48.930;9.526;2023-03-01T07:05:29;28.63;;;18.13;;
18804;SDS011;9530;48.930;9.526;2023-03-01T07:07:56;29.10;;;17.70;;
18804;SDS011;9530;48.930;9.526;2023-03-01T07:10:23;29.10;;;18.40;;
18804;SDS011;9530;48.930;9.526;2023-03-01T07:12:50;28.37;;;17.63;;
18804;SDS011;9530;48.930;9.526;2023-03-01T07:15:18;28.83;;;17.60;;
18804;SDS011;9530;48.930;9.526;2023-03-01T07:17:44;26.13;;;17.80;;
18804;SDS011;9530;48.930;9.526;2023-03-01T07:20:12;26.73;;;17.70;;
18804;SDS011;9530;48.930;9.526;2023-03-01T07:22:40;29.97;;;19.13;;
18804;SDS011;9530;48.930;9.526;2023-03-01T07:25:07;28.77;;;17.90;;
18804;SDS011;9530;48.930;9.526;2023-03-01T07:27:34;27.93;;;17.83;;
18804;SDS011;9530;48.930;9.526;2023-03-01T07:30:02;32.50;;;18.17;;
18804;SDS011;9530;48.930;9.526;2023-03-01T07:32:30;26.77;;;17.23;;
18804;SDS011;9530;48.930;9.526;2023-03-01T07:34:57;30.60;;;18.43;;
18804;SDS011;9530;48.930;9.526;2023-03-01T07:37:24;26.87;;;17.63;;
18804;SDS011;9530;48.930;9.526;2023-03-01T07:39:50;27.47;;;16.37;;
18804;SDS011;9530;48.930;9.526;2023-03-01T07:42:17;28.83;;;18.50;;
18804;SDS011;9530;48.930;9.526;2023-03-01T07:44:44;27.63;;;17.47;;
18804;SDS011;9530;48.930;9.526;2023-03-01T07:47:10;27.97;;;17.93;;
18804;SDS011;9530;48.930;9.526;2023-03-01T07:49:38;27.93;;;17.97;;
18804;SDS011;9530;48.930;9.526;2023-03-01T07:52:05;28.07;;;17.27;;
18804;SDS011;9530;48.930;9.526;2023-03-01T07:54:31;28.90;;;17.70;;
18804;SDS011;9530;48.930;9.526;2023-03-01T07:56:58;29.43;;;17.73;;
18804;SDS011;9530;48.930;9.526;2023-03-01T07:59:25;31.03;;;17.90;;
18804;SDS011;9530;48.930;9.526;2023-03-01T08:01:54;30.27;;;17.43;;
18804;SDS011;9530;48.930;9.526;2023-03-01T08:04:21;28.90;;;17.30;;
18804;SDS011;9530;48.930;9.526;2023-03-01T08:06:51;29.70;;;17.70;;
18804;SDS011;9530;48.930;9.526;2023-03-01T08:09:17;26.97;;;17.30;;
18804;SDS011;9530;48.930;9.526;2023-03-01T08:11:44;25.30;;;17.03;;
18804;SDS011;9530;48.930;9.526;2023-03-01T08:14:11;25.80;;;16.97;;
18804;SDS011;9530;48.930;9.526;2023-03-01T08:16:38;26.77;;;17.33;;
18804;SDS011;9530;48.930;9.526;2023-03-01T08:19:05;26.93;;;17.63;;
18804;SDS011;9530;48.930;9.526;2023-03-01T08:21:32;27.23;;;18.27;;
18804;SDS011;9530;48.930;9.526;2023-03-01T08:24:01;28.17;;;18.13;;
18804;SDS011;9530;48.930;9.526;2023-03-01T08:26:27;28.63;;;17.93;;
18804;SDS011;9530;48.930;9.526;2023-03-01T08:28:54;28.90;;;19.13;;
18804;SDS011;9530;48.930;9.526;2023-03-01T08:31:22;27.73;;;17.63;;
18804;SDS011;9530;48.930;9.526;2023-03-01T08:33:51;28.27;;;17.93;;
18804;SDS011;9530;48.930;9.526;2023-03-01T08:36:21;29.47;;;17.93;;
18804;SDS011;9530;48.930;9.526;2023-03-01T08:38:49;27.03;;;17.07;;
18804;SDS011;9530;48.930;9.526;2023-03-01T08:41:17;28.17;;;18.10;;
18804;SDS011;9530;48.930;9.526;2023-03-01T08:43:44;26.80;;;18.40;;
18804;SDS011;9530;48.930;9.526;2023-03-01T08:46:11;26.17;;;17.67;;
18804;SDS011;9530;48.930;9.526;2023-03-01T08:48:38;25.97;;;17.60;;
18804;SDS011;9530;48.930;9.526;2023-03-01T08:51:08;27.00;;;17.57;;
18804;SDS011;9530;48.930;9.526;2023-03-01T08:53:36;28.43;;;18.73;;
18804;SDS011;9530;48.930;9.526;2023-03-01T08:56:03;24.87;;;17.47;;
18804;SDS011;9530;48.930;9.526;2023-03-01T08:58:31;26.80;;;17.53;;
18804;SDS011;9530;48.930;9.526;2023-03-01T09:00:58;29.43;;;17.73;;
18804;SDS011;9530;48.930;9.526;2023-03-01T09:03:26;26.23;;;16.87;;
18804;SDS011;9530;48.930;9.526;2023-03-01T09:05:53;30.37;;;18.40;;
18804;SDS011;9530;48.930;9.526;2023-03-01T09:08:25;25.33;;;18.07;;
18804;SDS011;9530;48.930;9.526;2023-03-01T09:10:52;30.63;;;18.63;;
18804;SDS011;9530;48.930;9.526;2023-03-01T09:13:18;28.87;;;16.23;;
18804;SDS011;9530;48.930;9.526;2023-03-01T09:15:46;25.03;;;17.73;;
18804;SDS011;9530;48.930;9.526;2023-03-01T09:18:13;26.93;;;17.37;;
18804;SDS011;9530;48.930;9.526;2023-03-01T09:20:40;27.90;;;17.93;;
18804;SDS011;9530;48.930;9.526;2023-03-01T09:23:07;26.17;;;17.37;;
18804;SDS011;9530;48.930;9.526;2023-03-01T09:25:33;27.13;;;17.63;;
18804;SDS011;9530;48.930;9.526;2023-03-01T09:28:00;27.17;;;18.30;;
18804;SDS011;9530;48.930;9.526;2023-03-01T09:30:27;26.10;;;17.37;;
18804;SDS011;9530;48.930;9.526;2023-03-01T09:32:55;24.90;;;16.90;;
18804;SDS011;9530;48.930;9.526;2023-03-01T09:35:22;27.73;;;16.47;;
18804;SDS011;9530;48.930;9.526;2023-03-01T09:37:49;26.17;;;16.93;;
18804;SDS011;9530;48.930;9.526;2023-03-01T09:40:16;27.30;;;16.77;;
18804;SDS011;9530;48.930;9.526;2023-03-01T09:42:52;28.03;;;17.10;;
18804;SDS011;9530;48.930;9.526;2023-03-01T09:45:25;23.23;;;16.00;;
18804;SDS011;9530;48.930;9.526;2023-03-01T09:48:00;23.33;;;16.70;;
18804;SDS011;9530;48.930;9.526;2023-03-01T09:50:28;23.20;;;15.90;;
18804;SDS011;9530;48.930;9.526;2023-03-01T09:53:00;26.40;;;16.00;;
18804;SDS011;9530;48.930;9.526;2023-03-01T09:55:30;33.17;;;19.10;;
18804;SDS011;9530;48.930;9.526;2023-03-01T09:58:06;24.37;;;15.77;;
18804;SDS011;9530;48.930;9.526;2023-03-01T10:00:53;21.23;;;15.20;;
18804;SDS011;9530;48.930;9.526;2023-03-01T10:03:25;20.93;;;14.23;;
18804;SDS011;9530;48.930;9.526;2023-03-01T10:05:56;21.20;;;14.63;;
18804;SDS011;9530;48.930;9.526;2023-03-01T10:08:29;20.27;;;14.73;;
18804;SDS011;9530;48.930;9.526;2023-03-01T10:11:04;23.83;;;15.47;;
18804;SDS011;9530;48.930;9.526;2023-03-01T10:13:42;18.50;;;13.93;;
18804;SDS011;9530;48.930;9.526;2023-03-01T10:16:18;20.63;;;14.10;;
18804;SDS011;9530;48.930;9.526;2023-03-01T10:18:53;21.40;;;14.87;;
18804;SDS011;9530;48.930;9.526;2023-03-01T10:21:25;21.60;;;14.00;;
18804;SDS011;9530;48.930;9.526;2023-03-01T10:23:53;19.77;;;14.17;;
18804;SDS011;9530;48.930;9.526;2023-03-01T10:26:23;20.60;;;13.63;;
18804;SDS011;9530;48.930;9.526;2023-03-01T10:29:04;21.30;;;15.30;;
18804;SDS011;9530;48.930;9.526;2023-03-01T10:31:36;22.13;;;14.17;;
18804;SDS011;9530;48.930;9.526;2023-03-01T10:34:13;23.53;;;14.40;;
18804;SDS011;9530;48.930;9.526;2023-03-01T10:36:42;19.33;;;13.33;;
18804;SDS011;9530;48.930;9.526;2023-03-01T10:39:12;21.07;;;14.13;;
18804;SDS011;9530;48.930;9.526;2023-03-01T10:41:57;19.00;;;13.40;;
18804;SDS011;9530;48.930;9.526;2023-03-01T10:47:13;21.13;;;13.53;;
18804;SDS011;9530;48.930;9.526;2023-03-01T10:49:53;19.13;;;13.73;;
18804;SDS011;9530;48.930;9.526;2023-03-01T10:52:21;24.43;;;14.80;;
18804;SDS011;9530;48.930;9.526;2023-03-01T10:54:51;20.47;;;13.83;;
18804;SDS011;9530;48.930;9.526;2023-03-01T11:00:17;19.43;;;13.87;;
18804;SDS011;9530;48.930;9.526;2023-03-01T11:02:47;18.60;;;13.23;;
18804;SDS011;9530;48.930;9.526;2023-03-01T11:05:23;20.50;;;13.87;;
18804;SDS011;9530;48.930;9.526;2023-03-01T11:07:54;19.10;;;13.73;;
18804;SDS011;9530;48.930;9.526;2023-03-01T11:10:22;20.80;;;13.77;;
18804;SDS011;9530;48.930;9.526;2023-03-01T11:12:50;21.63;;;14.70;;
18804;SDS011;9530;48.930;9.526;2023-03-01T11:15:23;18.80;;;13.20;;
18804;SDS011;9530;48.930;9.526;2023-03-01T11:17:51;22.47;;;13.63;;
18804;SDS011;9530;48.930;9.526;2023-03-01T11:20:20;22.63;;;14.27;;
18804;SDS011;9530;48.930;9.526;2023-03-01T11:22:52;19.57;;;13.40;;
18804;SDS011;9530;48.930;9.526;2023-03-01T11:25:21;18.33;;;13.70;;
18804;SDS011;9530;48.930;9.526;2023-03-01T11:27:50;19.63;;;13.83;;
18804;SDS011;9530;48.930;9.526;2023-03-01T11:30:20;19.90;;;14.00;;
18804;SDS011;9530;48.930;9.526;2023-03-01T11:32:53;18.30;;;12.77;;
18804;SDS011;9530;48.930;9.526;2023-03-01T11:35:29;21.17;;;13.87;;
18804;SDS011;9530;48.930;9.526;2023-03-01T11:38:02;22.67;;;14.43;;
18804;SDS011;9530;48.930;9.526;2023-03-01T11:40:39;19.50;;;13.90;;
18804;SDS011;9530;48.930;9.526;2023-03-01T11:43:12;21.93;;;13.97;;
18804;SDS011;9530;48.930;9.526;2023-03-01T11:45:52;19.87;;;13.30;;
18804;SDS011;9530;48.930;9.526;2023-03-01T11:48:32;19.50;;;13.33;;
18804;SDS011;9530;48.930;9.526;2023-03-01T11:51:11;18.60;;;13.67;;
18804;SDS011;9530;48.930;9.526;2023-03-01T11:53:53;20.40;;;13.63;;
18804;SDS011;9530;48.930;9.526;2023-03-01T11:56:35;17.73;;;13.33;;
18804;SDS011;9530;48.930;9.526;2023-03-01T11:59:18;20.30;;;13.87;;
18804;SDS011;9530;48.930;9.526;2023-03-01T12:02:00;20.47;;;13.10;;
18804;SDS011;9530;48.930;9.526;2023-03-01T12:04:51;17.65;;;13.98;;
18804;SDS011;9530;48.930;9.526;2023-03-01T12:07:31;18.77;;;13.90;;
18804;SDS011;9530;48.930;9.526;2023-03-01T12:10:20;17.13;;;12.70;;
18804;SDS011;9530;48.930;9.526;2023-03-01T12:12:54;17.67;;;13.27;;
18804;SDS011;9530;48.930;9.526;2023-03-01T12:15:39;20.30;;;13.57;;
18804;SDS011;9530;48.930;9.526;2023-03-01T12:18:27;18.80;;;13.27;;
18804;SDS011;9530;48.930;9.526;2023-03-01T12:21:26;18.20;;;13.53;;
18804;SDS011;9530;48.930;9.526;2023-03-01T12:26:54;18.10;;;13.20;;
18804;SDS011;9530;48.930;9.526;2023-03-01T12:29:31;23.80;;;13.80;;
18804;SDS011;9530;48.930;9.526;2023-03-01T12:32:20;17.73;;;12.97;;
18804;SDS011;9530;48.930;9.526;2023-03-01T12:37:53;19.60;;;13.73;;
18804;SDS011;9530;48.930;9.526;2023-03-01T12:40:26;20.77;;;15.43;;
18804;SDS011;9530;48.930;9.526;2023-03-01T12:43:08;21.43;;;15.17;;
18804;SDS011;9530;48.930;9.526;2023-03-01T12:45:51;19.77;;;15.13;;
18804;SDS011;9530;48.930;9.526;2023-03-01T12:48:40;20.60;;;14.50;;
18804;SDS011;9530;48.930;9.526;2023-03-01T12:51:14;23.70;;;14.27;;
18804;SDS011;9530;48.930;9.526;2023-03-01T12:53:45;19.77;;;14.63;;
18804;SDS011;9530;48.930;9.526;2023-03-01T12:56:15;19.53;;;14.67;;
18804;SDS011;9530;48.930;9.526;2023-03-01T12:58:51;20.07;;;14.20;;
18804;SDS011;9530;48.930;9.526;2023-03-01T13:01:27;21.57;;;14.90;;
18804;SDS011;9530;48.930;9.526;2023-03-01T13:06:55;19.63;;;13.93;;
18804;SDS011;9530;48.930;9.526;2023-03-01T13:09:32;22.87;;;15.67;;
18804;SDS011;9530;48.930;9.526;2023-03-01T13:12:03;23.63;;;14.90;;
18804;SDS011;9530;48.930;9.526;2023-03-01T13:14:51;21.37;;;15.03;;
18804;SDS011;9530;48.930;9.526;2023-03-01T13:20:15;21.67;;;14.80;;
18804;SDS011;9530;48.930;9.526;2023-03-01T13:22:43;19.37;;;14.37;;
18804;SDS011;9530;48.930;9.526;2023-03-01T13:25:13;19.40;;;14.70;;
18804;SDS011;9530;48.930;9.526;2023-03-01T13:27:43;22.43;;;16.17;;
18804;SDS011;9530;48.930;9.526;2023-03-01T13:36:08;20.43;;;15.03;;
18804;SDS011;9530;48.930;9.526;2023-03-01T13:38:47;22.73;;;15.30;;
18804;SDS011;9530;48.930;9.526;2023-03-01T13:44:19;21.30;;;15.10;;
18804;SDS011;9530;48.930;9.526;2023-03-01T13:46:53;18.87;;;15.00;;
18804;SDS011;9530;48.930;9.526;2023-03-01T13:49:24;22.03;;;15.63;;
18804;SDS011;9530;48.930;9.526;2023-03-01T13:51:54;22.17;;;15.50;;
18804;SDS011;9530;48.930;9.526;2023-03-01T13:54:23;20.90;;;15.77;;
18804;SDS011;9530;48.930;9.526;2023-03-01T13:56:52;21.43;;;16.20;;
18804;SDS011;9530;48.930;9.526;2023-03-01T13:59:21;24.17;;;15.90;;
18804;SDS011;9530;48.930;9.526;2023-03-01T14:01:53;22.90;;;16.30;;
18804;SDS011;9530;48.930;9.526;2023-03-01T14:04:21;20.23;;;15.73;;
18804;SDS011;9530;48.930;9.526;2023-03-01T14:06:50;23.53;;;16.10;;
18804;SDS011;9530;48.930;9.526;2023-03-01T14:09:18;22.87;;;16.20;;
18804;SDS011;9530;48.930;9.526;2023-03-01T14:12:02;22.20;;;16.27;;
18804;SDS011;9530;48.930;9.526;2023-03-01T14:14:48;22.30;;;16.33;;
18804;SDS011;9530;48.930;9.526;2023-03-01T14:20:26;26.67;;;16.87;;
18804;SDS011;9530;48.930;9.526;2023-03-01T14:22:55;20.17;;;14.73;;
18804;SDS011;9530;48.930;9.526;2023-03-01T14:25:25;21.37;;;15.97;;
18804;SDS011;9530;48.930;9.526;2023-03-01T14:27:55;24.67;;;17.30;;
18804;SDS011;9530;48.930;9.526;2023-03-01T14:30:25;20.70;;;15.37;;
18804;SDS011;9530;48.930;9.526;2023-03-01T14:32:54;21.10;;;15.80;;
18804;SDS011;9530;48.930;9.526;2023-03-01T14:35:24;21.70;;;15.60;;
18804;SDS011;9530;48.930;9.526;2023-03-01T14:37:52;24.20;;;16.70;;
18804;SDS011;9530;48.930;9.526;2023-03-01T14:40:20;21.43;;;15.57;;
18804;SDS011;9530;48.930;9.526;2023-03-01T14:42:50;22.00;;;15.13;;
18804;SDS011;9530;48.930;9.526;2023-03-01T14:45:17;21.33;;;15.10;;
18804;SDS011;9530;48.930;9.526;2023-03-01T14:47:44;20.63;;;15.43;;
18804;SDS011;9530;48.930;9.526;2023-03-01T14:50:17;22.50;;;15.83;;
18804;SDS011;9530;48.930;9.526;2023-03-01T14:52:48;22.53;;;16.07;;
18804;SDS011;9530;48.930;9.526;2023-03-01T14:55:19;21.17;;;15.57;;
18804;SDS011;9530;48.930;9.526;2023-03-01T14:57:49;24.60;;;16.07;;
18804;SDS011;9530;48.930;9.526;2023-03-01T15:00:18;22.97;;;15.93;;
18804;SDS011;9530;48.930;9.526;2023-03-01T15:02:47;20.93;;;15.10;;
18804;SDS011;9530;48.930;9.526;2023-03-01T15:05:18;22.73;;;16.07;;
18804;SDS011;9530;48.930;9.526;2023-03-01T15:07:58;20.83;;;15.30;;
18804;SDS011;9530;48.930;9.526;2023-03-01T15:10:27;21.30;;;15.97;;
18804;SDS011;9530;48.930;9.526;2023-03-01T15:12:55;24.73;;;15.43;;
18804;SDS011;9530;48.930;9.526;2023-03-01T15:15:33;21.53;;;15.07;;
18804;SDS011;9530;48.930;9.526;2023-03-01T15:18:03;21.57;;;15.07;;
18804;SDS011;9530;48.930;9.526;2023-03-01T15:20:34;19.63;;;13.97;;